createdAt,value
2023-03-22T00:00:00.477Z,19.15
2023-03-22T00:02:27.573Z,20.38
2023-03-22T00:04:54.777Z,14.52
2023-03-22T00:07:21.836Z,16.02
2023-03-22T00:09:48.856Z,17.88
2023-03-22T00:12:15.850Z,18.42
2023-03-22T00:14:43.079Z,16.13
2023-03-22T00:17:10.119Z,17.92
2023-03-22T00:19:37.527Z,15.48
2023-03-22T00:22:06.407Z,15.25
2023-03-22T00:24:33.602Z,22.85
2023-03-22T00:27:01.156Z,18.92
2023-03-22T00:29:28.350Z,14.73
2023-03-22T00:31:56.420Z,21.02
2023-03-22T00:34:23.607Z,22.42
2023-03-22T00:36:52.031Z,19.88
2023-03-22T00:39:20.110Z,23.08
2023-03-22T00:41:47.862Z,17.40
2023-03-22T00:44:14.843Z,14.15
2023-03-22T00:46:41.870Z,15.55
2023-03-22T00:49:09.092Z,12.13
2023-03-22T00:51:36.098Z,18.13
2023-03-22T00:54:03.178Z,15.90
2023-03-22T00:56:30.211Z,16.73
2023-03-22T00:59:06.401Z,17.90
2023-03-22T01:01:33.539Z,17.40
2023-03-22T01:04:00.699Z,20.02
2023-03-22T01:06:27.849Z,23.55
2023-03-22T01:08:55.377Z,21.40
2023-03-22T01:11:22.492Z,13.60
2023-03-22T01:13:50.069Z,32.45
2023-03-22T01:16:18.059Z,15.57
2023-03-22T01:18:45.553Z,25.00
2023-03-22T01:21:13.006Z,16.65
2023-03-22T01:23:40.717Z,16.15
2023-03-22T01:26:07.901Z,16.98
2023-03-22T01:28:34.903Z,19.40
2023-03-22T01:31:03.240Z,19.98
2023-03-22T01:33:30.927Z,15.50
2023-03-22T01:35:58.399Z,17.52
2023-03-22T01:38:26.264Z,22.83
2023-03-22T01:40:57.541Z,22.25
2023-03-22T01:43:26.861Z,20.55
2023-03-22T01:45:55.410Z,22.38
2023-03-22T01:48:42.168Z,16.95
2023-03-22T01:51:14.444Z,18.00
2023-03-22T01:54:04.500Z,18.70
2023-03-22T01:56:39.229Z,17.90
2023-03-22T01:59:12.887Z,13.95
2023-03-22T02:02:05.474Z,13.00
2023-03-22T02:04:38.478Z,13.97
2023-03-22T02:07:10.334Z,13.55
2023-03-22T02:09:42.860Z,15.10
2023-03-22T02:12:34.175Z,13.02
2023-03-22T02:15:29.109Z,14.02
2023-03-22T02:18:19.076Z,21.15
2023-03-22T02:21:15.614Z,14.27
2023-03-22T02:24:06.326Z,15.52
2023-03-22T02:26:51.486Z,11.27
2023-03-22T02:29:45.322Z,13.48
2023-03-22T02:32:21.679Z,11.85
2023-03-22T02:35:09.701Z,8.90
2023-03-22T02:38:00.911Z,10.75
2023-03-22T02:40:32.201Z,11.40
2023-03-22T02:43:18.464Z,16.10
2023-03-22T02:45:55.414Z,11.17
2023-03-22T02:48:30.354Z,11.35
2023-03-22T02:51:04.050Z,9.52
2023-03-22T02:53:41.284Z,9.68
2023-03-22T02:56:16.853Z,11.93
2023-03-22T02:58:52.118Z,12.00
2023-03-22T03:01:29.355Z,10.88
2023-03-22T03:04:01.661Z,13.38
2023-03-22T03:06:33.684Z,13.18
2023-03-22T03:09:04.967Z,22.23
2023-03-22T03:11:32.638Z,14.27
2023-03-22T03:14:00.123Z,12.75
2023-03-22T03:16:30.910Z,10.18
2023-03-22T03:19:29.824Z,9.75
2023-03-22T03:22:34.757Z,9.73
2023-03-22T03:25:25.995Z,12.30
2023-03-22T03:28:23.147Z,18.35
2023-03-22T03:31:22.790Z,35.08
2023-03-22T03:36:37.912Z,269.00
2023-03-22T03:39:10.097Z,363.35
2023-03-22T03:41:38.048Z,440.95
2023-03-22T03:44:06.283Z,599.00
2023-03-22T03:46:33.562Z,697.75
2023-03-22T03:49:02.917Z,380.15
2023-03-22T03:51:30.214Z,206.57
2023-03-22T03:53:57.143Z,400.70
2023-03-22T03:56:24.355Z,133.70
2023-03-22T03:58:52.579Z,201.55
2023-03-22T04:01:20.848Z,131.60
2023-03-22T04:04:10.634Z,143.77
2023-03-22T04:06:50.307Z,14.45
2023-03-22T04:09:22.067Z,107.80
2023-03-22T04:11:57.611Z,313.20
2023-03-22T04:14:26.666Z,213.60
2023-03-22T04:16:56.561Z,252.75
2023-03-22T04:19:24.849Z,304.55
2023-03-22T04:21:53.300Z,395.45
2023-03-22T04:24:22.255Z,513.75
2023-03-22T04:26:52.733Z,431.30
2023-03-22T04:29:36.783Z,373.23
2023-03-22T04:32:24.789Z,397.08
2023-03-22T04:34:53.448Z,368.10
2023-03-22T04:37:24.683Z,211.38
2023-03-22T04:40:07.363Z,554.05
2023-03-22T04:43:06.589Z,325.30
2023-03-22T04:45:46.383Z,320.70
2023-03-22T04:48:20.649Z,418.92
2023-03-22T04:50:47.855Z,382.92
2023-03-22T04:53:15.182Z,166.65
2023-03-22T04:55:45.575Z,409.70
2023-03-22T04:58:12.722Z,164.45
2023-03-22T05:00:42.513Z,211.52
2023-03-22T05:03:11.117Z,150.27
2023-03-22T05:05:50.991Z,19.85
2023-03-22T05:08:17.988Z,7.47
2023-03-22T05:10:47.795Z,7.38
2023-03-22T05:13:14.767Z,6.13
2023-03-22T05:15:45.783Z,6.43
2023-03-22T05:18:16.654Z,9.43
2023-03-22T05:20:44.270Z,9.70
2023-03-22T05:23:19.378Z,8.15
2023-03-22T05:25:50.788Z,6.45
2023-03-22T05:28:19.827Z,7.60
2023-03-22T05:31:05.848Z,6.75
2023-03-22T05:33:42.523Z,7.22
2023-03-22T05:36:12.901Z,6.90
2023-03-22T05:38:56.682Z,7.00
2023-03-22T05:41:24.335Z,6.35
2023-03-22T05:43:51.462Z,5.50
2023-03-22T05:46:19.105Z,5.53
2023-03-22T05:49:11.672Z,5.82
2023-03-22T05:51:42.219Z,4.07
2023-03-22T05:54:11.020Z,5.18
2023-03-22T05:56:44.377Z,5.25
2023-03-22T05:59:11.554Z,4.22
2023-03-22T06:01:39.573Z,4.82
2023-03-22T06:04:21.233Z,6.55
2023-03-22T06:07:01.038Z,3.53
2023-03-22T06:09:57.411Z,4.90
2023-03-22T06:12:30.244Z,4.43
2023-03-22T06:15:08.704Z,4.68
2023-03-22T06:17:36.274Z,3.42
2023-03-22T06:20:10.346Z,4.72
2023-03-22T06:22:39.162Z,4.93
2023-03-22T06:25:08.378Z,4.35
2023-03-22T06:27:40.298Z,2.65
2023-03-22T06:30:08.458Z,3.53
2023-03-22T06:32:47.552Z,3.28
2023-03-22T06:35:15.766Z,2.97
2023-03-22T06:37:43.016Z,3.38
2023-03-22T06:40:10.852Z,3.50
2023-03-22T06:42:38.102Z,3.45
2023-03-22T06:45:14.707Z,3.55
2023-03-22T06:47:45.004Z,2.53
2023-03-22T06:50:12.455Z,2.85
2023-03-22T06:52:55.294Z,2.50
2023-03-22T06:55:22.528Z,2.58
2023-03-22T06:57:49.962Z,3.00
2023-03-22T07:00:17.301Z,2.72
2023-03-22T07:02:44.313Z,3.60
2023-03-22T07:05:31.744Z,3.70
2023-03-22T07:07:58.937Z,3.40
2023-03-22T07:10:36.271Z,2.88
2023-03-22T07:13:04.210Z,3.30
2023-03-22T07:15:33.112Z,3.30
2023-03-22T07:18:08.685Z,2.90
2023-03-22T07:20:41.733Z,3.92
2023-03-22T07:23:10.918Z,4.50
2023-03-22T07:25:47.188Z,5.57
2023-03-22T07:28:22.974Z,4.80
2023-03-22T07:30:59.199Z,4.38
2023-03-22T07:33:26.518Z,5.75
2023-03-22T07:35:55.995Z,6.07
2023-03-22T07:38:23.349Z,4.60
2023-03-22T07:40:54.805Z,5.65
2023-03-22T07:43:25.040Z,5.22
2023-03-22T07:45:58.270Z,4.95
2023-03-22T07:48:43.568Z,6.22
2023-03-22T07:51:33.606Z,5.32
2023-03-22T07:54:01.479Z,6.25
2023-03-22T07:56:29.509Z,5.32
2023-03-22T07:58:56.879Z,6.57
2023-03-22T08:01:24.817Z,8.40
2023-03-22T08:03:54.658Z,5.40
2023-03-22T08:06:40.527Z,5.55
2023-03-22T08:09:08.600Z,5.43
2023-03-22T08:11:36.486Z,6.80
2023-03-22T08:14:03.508Z,6.43
2023-03-22T08:16:33.955Z,5.47
2023-03-22T08:19:04.317Z,5.35
2023-03-22T08:21:35.366Z,6.18
2023-03-22T08:24:03.917Z,5.40
2023-03-22T08:26:54.085Z,4.40
2023-03-22T08:29:28.480Z,7.50
2023-03-22T08:32:02.167Z,5.43
2023-03-22T08:34:33.436Z,5.75
2023-03-22T08:37:00.692Z,6.45
2023-03-22T08:39:28.088Z,6.32
2023-03-22T08:42:07.087Z,5.28
2023-03-22T08:44:35.506Z,6.80
2023-03-22T08:47:05.923Z,6.22
2023-03-22T08:49:33.536Z,6.38
2023-03-22T08:52:08.878Z,5.05
2023-03-22T08:54:58.851Z,6.40
2023-03-22T08:57:51.893Z,6.53
2023-03-22T09:00:49.016Z,6.85
2023-03-22T09:03:43.599Z,6.50
2023-03-22T09:06:11.327Z,6.55
2023-03-22T09:08:42.208Z,11.73
2023-03-22T09:11:17.637Z,10.18
2023-03-22T09:13:46.380Z,11.07
2023-03-22T09:16:13.641Z,9.73
2023-03-22T09:18:43.438Z,9.77
2023-03-22T09:21:15.270Z,8.15
2023-03-22T09:23:56.829Z,9.60
2023-03-22T09:26:37.537Z,9.00
2023-03-22T09:29:06.120Z,10.75
2023-03-22T09:31:34.111Z,109.10
2023-03-22T09:34:22.153Z,327.67
2023-03-22T09:36:49.644Z,566.55
2023-03-22T09:39:20.064Z,304.17
2023-03-22T09:41:59.566Z,699.97
2023-03-22T09:44:29.797Z,753.17
2023-03-22T10:17:54.757Z,159.93
2023-03-22T10:20:30.624Z,209.85
2023-03-22T10:23:00.146Z,223.15
2023-03-22T10:25:42.478Z,283.15
2023-03-22T10:28:34.982Z,162.40
2023-03-22T10:31:05.207Z,223.60
2023-03-22T10:33:50.648Z,373.58
2023-03-22T10:36:22.469Z,395.38
2023-03-22T10:38:58.070Z,23.55
2023-03-22T10:41:27.875Z,390.13
2023-03-22T10:44:00.433Z,377.58
2023-03-22T10:46:33.744Z,356.67
2023-03-22T10:49:02.376Z,51.10
2023-03-22T10:51:48.880Z,329.88
2023-03-22T10:54:21.338Z,230.02
2023-03-22T10:56:48.523Z,318.05
2023-03-22T10:59:42.637Z,167.98
2023-03-22T11:02:32.046Z,121.13
2023-03-22T11:05:02.105Z,289.60
2023-03-22T11:07:42.994Z,144.88
2023-03-22T11:10:09.935Z,233.50
2023-03-22T11:12:47.341Z,68.85
2023-03-22T11:15:26.485Z,174.63
2023-03-22T11:17:58.684Z,10.25
2023-03-22T11:20:26.212Z,139.60
2023-03-22T11:22:53.512Z,11.57
2023-03-22T11:25:31.606Z,11.93
2023-03-22T11:28:10.363Z,9.20
2023-03-22T11:30:37.771Z,7.50
2023-03-22T11:33:20.112Z,6.22
2023-03-22T11:35:54.022Z,7.15
2023-03-22T11:38:40.091Z,5.20
2023-03-22T11:41:25.242Z,3.20
2023-03-22T11:43:55.618Z,2.95
2023-03-22T11:46:23.548Z,4.22
2023-03-22T11:48:53.118Z,3.88
2023-03-22T11:51:30.620Z,2.75
2023-03-22T11:54:06.733Z,6.32
2023-03-22T11:59:13.564Z,2.00
2023-03-22T12:01:43.203Z,2.53
2023-03-22T12:04:16.549Z,2.45
2023-03-22T12:06:44.406Z,3.63
2023-03-22T12:09:25.868Z,3.13
2023-03-22T12:11:57.476Z,3.70
2023-03-22T12:14:49.146Z,3.78
2023-03-22T12:17:19.048Z,3.65
2023-03-22T12:20:13.710Z,3.97
2023-03-22T12:22:51.272Z,3.28
2023-03-22T12:25:27.149Z,2.55
2023-03-22T12:27:58.281Z,2.70
2023-03-22T12:30:36.485Z,2.33
2023-03-22T12:33:10.737Z,2.75
2023-03-22T12:35:43.835Z,2.78
2023-03-22T12:38:28.213Z,2.35
2023-03-22T12:41:00.816Z,2.83
2023-03-22T12:43:54.500Z,3.75
2023-03-22T12:46:26.443Z,1.83
2023-03-22T12:49:02.956Z,1.80
2023-03-22T12:53:59.742Z,1.17
2023-03-22T12:56:38.448Z,1.70
2023-03-22T12:59:12.727Z,1.42
2023-03-22T13:01:59.181Z,2.83
2023-03-22T13:04:28.531Z,2.03
2023-03-22T13:07:08.944Z,2.17
2023-03-22T13:09:50.469Z,1.10
2023-03-22T13:12:17.653Z,1.25
2023-03-22T13:14:50.989Z,2.47
2023-03-22T13:17:24.376Z,1.42
2023-03-22T13:20:08.144Z,1.52
2023-03-22T13:22:38.306Z,2.13
2023-03-22T13:25:14.701Z,2.20
2023-03-22T13:28:03.638Z,1.50
2023-03-22T13:30:37.028Z,1.27
2023-03-22T13:33:09.891Z,1.80
2023-03-22T13:35:51.382Z,1.98
2023-03-22T13:38:30.593Z,1.63
2023-03-22T13:41:07.949Z,1.67
2023-03-22T13:43:46.967Z,1.55
2023-03-22T13:46:53.993Z,0.50
2023-03-22T13:49:42.619Z,1.23
2023-03-22T13:52:22.348Z,2.80
2023-03-22T13:54:52.473Z,1.23
2023-03-22T13:57:45.327Z,1.15
2023-03-22T14:00:36.831Z,12.38
2023-03-22T14:03:27.361Z,1.65
2023-03-22T14:06:09.650Z,0.60
2023-03-22T14:08:38.067Z,1.60
2023-03-22T14:11:16.564Z,1.08
2023-03-22T14:13:49.328Z,1.13
2023-03-22T14:16:21.094Z,0.93
2023-03-22T14:18:49.793Z,1.25
2023-03-22T14:21:35.669Z,1.40
